createdAt,value
2023-03-12T00:00:11.376Z,76.50
2023-03-12T00:02:38.938Z,76.27
2023-03-12T00:05:07.278Z,76.56
2023-03-12T00:07:36.529Z,76.44
2023-03-12T00:10:08.184Z,76.59
2023-03-12T00:12:35.856Z,76.40
2023-03-12T00:15:04.325Z,76.78
2023-03-12T00:17:31.782Z,76.80
2023-03-12T00:19:59.476Z,76.85
2023-03-12T00:22:27.904Z,76.84
2023-03-12T00:24:56.996Z,77.05
2023-03-12T00:27:27.369Z,77.05
2023-03-12T00:29:55.036Z,77.36
2023-03-12T00:32:23.078Z,76.78
2023-03-12T00:34:53.077Z,76.97
2023-03-12T00:37:21.095Z,76.96
2023-03-12T00:39:48.942Z,77.27
2023-03-12T00:42:16.474Z,77.09
2023-03-12T00:44:44.405Z,76.92
2023-03-12T00:47:13.830Z,76.90
2023-03-12T00:49:41.720Z,76.72
2023-03-12T00:52:09.314Z,76.87
2023-03-12T00:54:37.049Z,76.83
2023-03-12T00:57:04.817Z,77.27
2023-03-12T00:59:33.200Z,76.97
2023-03-12T01:02:00.924Z,77.13
2023-03-12T01:04:28.658Z,76.90
2023-03-12T01:06:56.196Z,76.75
2023-03-12T01:09:24.033Z,76.83
2023-03-12T01:11:52.501Z,76.88
2023-03-12T01:14:20.507Z,76.82
2023-03-12T01:16:50.288Z,76.72
2023-03-12T01:19:19.236Z,76.69
2023-03-12T01:21:47.125Z,76.80
2023-03-12T01:24:14.854Z,76.75
2023-03-12T01:26:42.290Z,76.85
2023-03-12T01:29:10.010Z,76.86
2023-03-12T01:31:37.644Z,76.84
2023-03-12T01:34:05.216Z,76.99
2023-03-12T01:36:33.014Z,76.82
2023-03-12T01:39:01.401Z,76.80
2023-03-12T01:41:32.631Z,76.97
2023-03-12T01:44:03.723Z,76.75
2023-03-12T01:46:33.918Z,76.78
2023-03-12T01:49:13.063Z,77.11
2023-03-12T01:52:01.718Z,77.11
2023-03-12T01:54:42.707Z,76.97
2023-03-12T01:57:19.940Z,76.91
2023-03-12T01:59:53.526Z,76.92
2023-03-12T02:02:27.106Z,77.12
2023-03-12T02:05:19.553Z,77.43
2023-03-12T02:07:47.187Z,77.17
2023-03-12T02:10:15.957Z,77.33
2023-03-12T02:12:43.674Z,77.26
2023-03-12T02:15:12.169Z,77.05
2023-03-12T02:17:40.972Z,77.01
2023-03-12T02:20:28.110Z,77.30
2023-03-12T02:23:10.203Z,77.34
2023-03-12T02:25:53.115Z,77.16
2023-03-12T02:28:25.019Z,77.47
2023-03-12T02:30:58.844Z,77.27
2023-03-12T02:33:26.834Z,77.53
2023-03-12T02:35:55.973Z,77.51
2023-03-12T02:38:52.425Z,77.22
2023-03-12T02:41:34.210Z,77.78
2023-03-12T02:44:20.791Z,78.03
2023-03-12T02:46:55.144Z,77.93
2023-03-12T02:49:28.771Z,78.13
2023-03-12T02:51:57.365Z,77.96
2023-03-12T02:54:26.276Z,78.18
2023-03-12T02:56:54.373Z,78.30
2023-03-12T02:59:25.997Z,78.18
2023-03-12T03:01:58.847Z,78.14
2023-03-12T03:04:29.807Z,78.28
2023-03-12T03:06:57.783Z,78.41
2023-03-12T03:09:26.272Z,78.57
2023-03-12T03:11:53.931Z,78.58
2023-03-12T03:14:23.484Z,78.41
2023-03-12T03:16:52.094Z,78.65
2023-03-12T03:19:23.613Z,78.90
2023-03-12T03:21:51.139Z,78.81
2023-03-12T03:24:18.829Z,78.81
2023-03-12T03:26:46.373Z,78.85
2023-03-12T03:29:14.338Z,79.32
2023-03-12T03:31:43.535Z,79.26
2023-03-12T03:34:12.509Z,79.22
2023-03-12T03:36:40.271Z,79.33
2023-03-12T03:39:12.222Z,79.22
2023-03-12T03:41:39.867Z,79.60
2023-03-12T03:44:07.894Z,79.74
2023-03-12T03:46:39.839Z,79.53
2023-03-12T03:49:10.519Z,79.55
2023-03-12T03:51:42.617Z,79.55
2023-03-12T03:54:12.932Z,79.73
2023-03-12T03:56:41.944Z,80.08
2023-03-12T03:59:10.716Z,79.76
2023-03-12T04:01:40.112Z,80.33
2023-03-12T04:04:09.164Z,80.41
2023-03-12T04:06:37.635Z,80.44
2023-03-12T04:09:05.366Z,80.51
2023-03-12T04:11:34.869Z,80.56
2023-03-12T04:14:03.904Z,80.79
2023-03-12T04:16:33.803Z,80.62
2023-03-12T04:19:02.766Z,80.69
2023-03-12T04:21:30.578Z,80.70
2023-03-12T04:23:58.572Z,81.04
2023-03-12T04:26:30.204Z,80.90
2023-03-12T04:28:58.038Z,81.58
2023-03-12T04:31:25.935Z,81.48
2023-03-12T04:33:53.409Z,81.11
2023-03-12T04:36:24.217Z,81.44
2023-03-12T04:38:53.550Z,81.70
2023-03-12T04:41:27.621Z,81.83
2023-03-12T04:44:04.646Z,81.94
2023-03-12T04:46:34.478Z,81.90
2023-03-12T04:49:02.780Z,81.90
2023-03-12T04:51:32.584Z,82.32
2023-03-12T04:54:02.533Z,82.19
2023-03-12T04:56:30.205Z,82.38
2023-03-12T04:58:58.467Z,82.30
2023-03-12T05:01:34.896Z,82.55
2023-03-12T05:04:07.206Z,82.83
2023-03-12T05:06:35.588Z,82.92
2023-03-12T05:09:03.998Z,83.23
2023-03-12T05:11:31.593Z,83.08
2023-03-12T05:13:59.244Z,83.37
2023-03-12T05:16:26.926Z,83.76
2023-03-12T05:18:54.616Z,84.00
2023-03-12T05:21:24.951Z,83.89
2023-03-12T05:23:55.906Z,84.08
2023-03-12T05:26:32.501Z,84.26
2023-03-12T05:29:16.237Z,84.21
2023-03-12T05:31:44.850Z,84.78
2023-03-12T05:34:14.238Z,84.98
2023-03-12T05:36:46.729Z,84.83
2023-03-12T05:39:18.472Z,85.40
2023-03-12T05:41:46.066Z,85.41
2023-03-12T05:44:18.285Z,85.50
2023-03-12T05:46:51.543Z,85.36
2023-03-12T05:49:20.763Z,85.35
2023-03-12T05:51:49.762Z,85.42
2023-03-12T05:54:19.307Z,85.70
2023-03-12T05:56:49.308Z,85.85
2023-03-12T05:59:17.183Z,85.75
2023-03-12T06:01:44.972Z,86.16
2023-03-12T06:04:13.070Z,86.12
2023-03-12T06:06:40.968Z,85.96
2023-03-12T06:09:08.628Z,86.32
2023-03-12T06:11:36.473Z,86.94
2023-03-12T06:14:04.749Z,86.61
2023-03-12T06:16:33.830Z,86.97
2023-03-12T06:19:03.766Z,86.98
2023-03-12T06:21:38.591Z,87.46
2023-03-12T06:24:09.010Z,87.49
2023-03-12T06:26:59.034Z,88.27
2023-03-12T06:29:26.676Z,88.37
2023-03-12T06:31:55.876Z,88.41
2023-03-12T06:34:23.667Z,88.51
2023-03-12T06:36:51.136Z,88.60
2023-03-12T06:39:18.734Z,88.97
2023-03-12T06:41:46.561Z,89.06
2023-03-12T06:44:14.077Z,89.74
2023-03-12T06:46:42.848Z,89.80
2023-03-12T06:49:11.574Z,89.94
2023-03-12T06:51:39.232Z,90.08
2023-03-12T06:54:07.047Z,90.54
2023-03-12T06:56:34.846Z,90.92
2023-03-12T06:59:02.394Z,92.00
2023-03-12T07:01:29.982Z,91.97
2023-03-12T07:03:57.612Z,92.40
2023-03-12T07:06:25.592Z,92.87
2023-03-12T07:08:53.251Z,93.39
2023-03-12T07:11:21.024Z,93.94
2023-03-12T07:13:48.545Z,94.48
2023-03-12T07:16:16.106Z,94.79
2023-03-12T07:18:43.841Z,95.37
2023-03-12T07:21:11.282Z,95.74
2023-03-12T07:23:38.748Z,96.02
2023-03-12T07:26:06.803Z,96.55
2023-03-12T07:28:34.344Z,97.12
2023-03-12T07:31:04.399Z,97.50
2023-03-12T07:33:32.734Z,97.38
2023-03-12T07:36:00.956Z,98.04
2023-03-12T07:38:28.566Z,98.21
2023-03-12T07:40:58.931Z,98.36
2023-03-12T07:43:27.017Z,98.83
2023-03-12T07:45:56.050Z,99.00
2023-03-12T07:48:24.146Z,99.69
2023-03-12T07:50:52.276Z,99.67
2023-03-12T07:53:19.860Z,99.97
2023-03-12T07:55:48.507Z,100.00
2023-03-12T07:58:17.324Z,100.00
2023-03-12T08:00:45.087Z,100.00
2023-03-12T08:03:13.733Z,100.00
2023-03-12T08:05:41.647Z,100.00
2023-03-12T08:08:09.955Z,100.00
2023-03-12T08:10:37.797Z,100.00
2023-03-12T08:13:05.548Z,100.00
2023-03-12T08:15:33.556Z,100.00
2023-03-12T08:18:01.504Z,100.00
2023-03-12T08:20:29.169Z,100.00
2023-03-12T08:22:56.728Z,100.00
2023-03-12T08:25:24.856Z,100.00
2023-03-12T08:27:52.534Z,100.00
2023-03-12T08:30:21.112Z,100.00
2023-03-12T08:32:48.654Z,100.00
2023-03-12T08:35:16.399Z,100.00
2023-03-12T08:37:44.046Z,100.00
2023-03-12T08:40:15.469Z,100.00
2023-03-12T08:42:45.020Z,100.00
2023-03-12T08:45:14.357Z,100.00
2023-03-12T08:47:43.526Z,100.00
2023-03-12T08:50:14.717Z,100.00
2023-03-12T08:52:43.177Z,100.00
2023-03-12T08:55:11.979Z,100.00
2023-03-12T08:57:39.955Z,100.00
2023-03-12T09:00:14.915Z,100.00
2023-03-12T09:02:45.695Z,100.00
2023-03-12T09:05:14.231Z,100.00
2023-03-12T09:07:42.368Z,100.00
2023-03-12T09:10:10.597Z,100.00
2023-03-12T09:12:38.283Z,100.00
2023-03-12T09:15:07.087Z,100.00
2023-03-12T09:17:34.653Z,100.00
2023-03-12T09:20:02.266Z,100.00
2023-03-12T09:22:30.671Z,100.00
2023-03-12T09:24:58.232Z,100.00
2023-03-12T09:27:25.852Z,100.00
2023-03-12T09:30:00.508Z,100.00
2023-03-12T09:32:29.129Z,100.00
2023-03-12T09:34:57.162Z,100.00
2023-03-12T09:37:24.877Z,100.00
2023-03-12T09:39:54.203Z,100.00
2023-03-12T09:42:42.174Z,100.00
2023-03-12T09:45:21.118Z,100.00
2023-03-12T09:47:54.100Z,100.00
2023-03-12T09:50:29.959Z,100.00
2023-03-12T09:53:03.349Z,100.00
2023-03-12T09:55:39.691Z,100.00
2023-03-12T09:58:34.098Z,100.00
2023-03-12T10:01:49.506Z,100.00
2023-03-12T10:04:57.992Z,100.00
2023-03-12T10:07:43.221Z,100.00
2023-03-12T10:11:00.634Z,100.00
2023-03-12T10:14:23.054Z,100.00
2023-03-12T10:17:31.471Z,100.00
2023-03-12T10:20:30.307Z,100.00
2023-03-12T10:23:12.852Z,100.00
2023-03-12T10:25:57.243Z,100.00
2023-03-12T10:28:49.171Z,100.00
2023-03-12T10:31:44.555Z,100.00
2023-03-12T10:34:25.297Z,100.00
2023-03-12T10:36:59.983Z,100.00
2023-03-12T10:39:27.683Z,100.00
2023-03-12T10:41:56.721Z,100.00
2023-03-12T10:44:26.070Z,100.00
2023-03-12T10:47:27.386Z,100.00
2023-03-12T10:49:55.054Z,100.00
2023-03-12T10:52:23.802Z,100.00
2023-03-12T10:54:53.583Z,100.00
2023-03-12T10:57:21.196Z,100.00
2023-03-12T10:59:50.950Z,100.00
2023-03-12T11:02:36.253Z,100.00
2023-03-12T11:05:25.587Z,100.00
2023-03-12T11:07:53.451Z,100.00
2023-03-12T11:10:40.711Z,100.00
2023-03-12T11:13:41.882Z,100.00
2023-03-12T11:16:18.708Z,100.00
2023-03-12T11:19:04.136Z,100.00
2023-03-12T11:21:40.433Z,100.00
2023-03-12T11:24:14.725Z,100.00
2023-03-12T11:27:02.220Z,100.00
2023-03-12T11:29:39.661Z,100.00
2023-03-12T11:32:36.868Z,100.00
2023-03-12T11:35:11.555Z,100.00
2023-03-12T11:38:16.176Z,100.00
2023-03-12T11:41:08.647Z,100.00
2023-03-12T11:43:54.698Z,100.00
2023-03-12T11:46:33.583Z,100.00
2023-03-12T11:49:23.974Z,100.00
2023-03-12T11:52:37.377Z,100.00
2023-03-12T11:55:16.933Z,100.00
2023-03-12T11:58:12.447Z,100.00
2023-03-12T12:01:13.028Z,100.00
2023-03-12T12:04:02.380Z,100.00
2023-03-12T12:06:52.605Z,100.00
2023-03-12T12:09:35.467Z,100.00
2023-03-12T12:12:18.001Z,100.00
2023-03-12T12:15:12.718Z,100.00
2023-03-12T12:18:01.314Z,100.00
2023-03-12T12:20:58.952Z,100.00
2023-03-12T12:24:05.113Z,100.00
2023-03-12T12:27:04.260Z,100.00
2023-03-12T12:29:40.768Z,100.00
2023-03-12T12:32:35.633Z,100.00
2023-03-12T12:35:29.120Z,100.00
2023-03-12T12:38:06.908Z,100.00
2023-03-12T12:40:43.992Z,100.00
2023-03-12T12:43:27.989Z,100.00
2023-03-12T12:46:07.857Z,100.00
2023-03-12T12:48:43.578Z,100.00
2023-03-12T12:51:14.360Z,100.00
2023-03-12T12:54:25.544Z,100.00
2023-03-12T12:57:15.714Z,100.00
2023-03-12T13:00:18.867Z,100.00
2023-03-12T13:02:48.310Z,100.00
2023-03-12T13:05:46.139Z,100.00
2023-03-12T13:08:34.549Z,100.00
2023-03-12T13:11:42.996Z,100.00
2023-03-12T13:14:10.707Z,100.00
2023-03-12T13:16:44.372Z,100.00
2023-03-12T13:19:14.812Z,100.00
2023-03-12T13:22:39.110Z,100.00
2023-03-12T13:25:35.336Z,100.00
2023-03-12T13:28:32.631Z,100.00
2023-03-12T13:31:23.661Z,100.00
2023-03-12T13:33:56.905Z,100.00
2023-03-12T13:36:28.607Z,100.00
2023-03-12T13:38:59.972Z,100.00
2023-03-12T13:41:31.965Z,100.00
2023-03-12T13:44:00.342Z,100.00
2023-03-12T13:46:45.825Z,100.00
2023-03-12T13:49:17.404Z,100.00
2023-03-12T13:51:55.820Z,100.00
2023-03-12T13:54:29.719Z,100.00
2023-03-12T13:57:10.307Z,100.00
2023-03-12T13:59:46.234Z,100.00
2023-03-12T14:02:28.466Z,100.00
2023-03-12T14:05:08.090Z,100.00
2023-03-12T14:07:54.967Z,100.00
2023-03-12T14:10:48.396Z,100.00
2023-03-12T14:13:39.759Z,100.00
2023-03-12T14:16:45.998Z,100.00
2023-03-12T14:19:19.688Z,100.00
2023-03-12T14:21:50.746Z,98.75
2023-03-12T14:24:39.155Z,98.33
2023-03-12T14:27:17.952Z,97.87
2023-03-12T14:29:55.633Z,97.48
2023-03-12T14:32:31.275Z,96.94
2023-03-12T14:35:25.974Z,97.05
2023-03-12T14:38:05.739Z,97.47
2023-03-12T14:40:59.493Z,97.01
2023-03-12T14:43:35.465Z,96.15
2023-03-12T14:46:14.284Z,95.80
2023-03-12T14:48:41.821Z,95.98
2023-03-12T14:51:26.555Z,95.54
2023-03-12T14:53:56.240Z,95.71
2023-03-12T14:56:29.483Z,94.76
2023-03-12T14:59:01.686Z,93.85
2023-03-12T15:01:39.598Z,92.96
2023-03-12T15:04:18.098Z,93.27
2023-03-12T15:06:56.970Z,93.72
2023-03-12T15:09:32.473Z,94.21
2023-03-12T15:12:07.875Z,94.02
2023-03-12T15:14:42.118Z,93.85
2023-03-12T15:17:18.446Z,93.43
2023-03-12T15:19:48.901Z,92.67
2023-03-12T15:22:22.128Z,92.82
2023-03-12T15:24:49.686Z,93.52
2023-03-12T15:27:30.004Z,93.63
2023-03-12T15:30:00.965Z,92.77
2023-03-12T15:32:31.733Z,92.56
2023-03-12T15:34:59.984Z,92.94
2023-03-12T15:37:38.049Z,92.61
2023-03-12T15:40:31.805Z,92.00
2023-03-12T15:43:03.333Z,91.20
2023-03-12T15:45:35.010Z,90.20
2023-03-12T15:48:21.689Z,90.59
2023-03-12T15:50:49.285Z,90.13
2023-03-12T15:53:19.471Z,91.03
2023-03-12T15:56:22.770Z,90.48
2023-03-12T15:59:02.354Z,90.88
2023-03-12T16:01:30.087Z,90.72
2023-03-12T16:03:58.668Z,90.52
2023-03-12T16:06:30.014Z,90.70
2023-03-12T16:09:03.810Z,90.69
2023-03-12T16:11:35.878Z,90.34
2023-03-12T16:14:32.911Z,90.38
2023-03-12T16:17:00.736Z,90.98
2023-03-12T16:19:33.162Z,90.81
2023-03-12T16:22:01.005Z,91.31
2023-03-12T16:24:28.637Z,91.57
2023-03-12T16:26:59.578Z,92.00
2023-03-12T16:29:36.948Z,92.24
2023-03-12T16:32:25.925Z,92.17
2023-03-12T16:34:53.454Z,92.77
2023-03-12T16:37:21.054Z,92.98
2023-03-12T16:39:49.549Z,93.14
2023-03-12T16:42:25.740Z,93.06
2023-03-12T16:44:53.350Z,93.32
2023-03-12T16:47:21.274Z,93.54
2023-03-12T16:49:48.726Z,93.55
2023-03-12T16:52:23.101Z,93.57
2023-03-12T16:54:52.008Z,93.62
2023-03-12T16:57:41.325Z,93.62
2023-03-12T17:00:16.813Z,93.50
2023-03-12T17:02:44.717Z,93.87
2023-03-12T17:05:12.897Z,93.46
2023-03-12T17:07:40.970Z,93.67
2023-03-12T17:10:10.515Z,93.81
2023-03-12T17:12:40.338Z,93.57
2023-03-12T17:15:20.587Z,93.56
2023-03-12T17:17:49.877Z,93.47
2023-03-12T17:20:21.311Z,93.64
2023-03-12T17:22:49.372Z,93.44
2023-03-12T17:25:30.796Z,93.26
2023-03-12T17:27:59.136Z,92.99
2023-03-12T17:30:30.665Z,93.11
2023-03-12T17:33:06.898Z,92.69
2023-03-12T17:35:35.873Z,92.33
2023-03-12T17:38:04.069Z,92.11
2023-03-12T17:40:31.807Z,92.14
2023-03-12T17:42:59.538Z,92.17
2023-03-12T17:45:28.265Z,91.70
2023-03-12T17:47:55.897Z,91.86
2023-03-12T17:50:23.386Z,91.79
2023-03-12T17:52:51.116Z,91.55
2023-03-12T17:55:18.785Z,91.73
2023-03-12T17:57:46.491Z,91.82
2023-03-12T18:00:14.610Z,91.92
2023-03-12T18:02:42.671Z,92.29
2023-03-12T18:05:15.897Z,92.13
2023-03-12T18:07:43.925Z,91.90
2023-03-12T18:10:14.504Z,91.80
2023-03-12T18:12:42.053Z,91.75
2023-03-12T18:15:13.905Z,92.11
2023-03-12T18:17:44.576Z,91.98
2023-03-12T18:20:16.675Z,92.14
2023-03-12T18:22:47.126Z,92.16
2023-03-12T18:25:14.933Z,92.35
2023-03-12T18:27:42.446Z,92.01
2023-03-12T18:30:14.196Z,92.25
2023-03-12T18:32:41.649Z,92.23
2023-03-12T18:35:09.525Z,92.31
2023-03-12T18:37:37.089Z,92.60
2023-03-12T18:40:05.573Z,92.58
2023-03-12T18:42:33.117Z,92.53
2023-03-12T18:45:00.705Z,92.66
2023-03-12T18:47:28.253Z,92.71
2023-03-12T18:49:56.365Z,92.72
2023-03-12T18:52:23.947Z,93.00
2023-03-12T18:54:51.534Z,93.22
2023-03-12T18:57:19.000Z,93.04
2023-03-12T18:59:47.451Z,93.14
2023-03-12T19:02:14.930Z,93.03
2023-03-12T19:04:42.846Z,93.11
2023-03-12T19:07:10.844Z,93.30
2023-03-12T19:09:38.330Z,93.27
2023-03-12T19:12:06.154Z,93.27
2023-03-12T19:14:33.639Z,93.34
2023-03-12T19:17:01.082Z,93.46
2023-03-12T19:19:28.759Z,93.64
2023-03-12T19:21:57.460Z,93.19
2023-03-12T19:24:25.093Z,93.28
2023-03-12T19:26:52.716Z,93.45
2023-03-12T19:29:20.298Z,93.65
2023-03-12T19:31:47.942Z,93.42
2023-03-12T19:34:17.164Z,93.53
2023-03-12T19:36:44.876Z,93.47
2023-03-12T19:39:21.080Z,93.43
2023-03-12T19:41:50.871Z,93.36
2023-03-12T19:44:18.541Z,93.39
2023-03-12T19:46:46.066Z,93.49
2023-03-12T19:49:13.662Z,93.63
2023-03-12T19:51:41.404Z,93.89
2023-03-12T19:54:08.993Z,93.69
2023-03-12T19:56:36.489Z,93.40
2023-03-12T19:59:04.158Z,93.80
2023-03-12T20:01:31.618Z,93.97
2023-03-12T20:03:59.153Z,94.05
2023-03-12T20:06:26.977Z,93.84
2023-03-12T20:08:54.507Z,94.07
2023-03-12T20:11:23.093Z,94.18
2023-03-12T20:13:50.718Z,94.20
2023-03-12T20:16:18.918Z,94.02
2023-03-12T20:18:46.941Z,93.93
2023-03-12T20:21:14.604Z,94.04
2023-03-12T20:23:42.413Z,94.52
2023-03-12T20:26:10.717Z,94.36
2023-03-12T20:28:38.364Z,94.57
2023-03-12T20:31:15.527Z,94.44
2023-03-12T20:33:43.477Z,94.69
2023-03-12T20:36:13.901Z,95.01
2023-03-12T20:38:42.089Z,94.89
2023-03-12T20:41:14.151Z,95.12
2023-03-12T20:43:43.192Z,95.03
2023-03-12T20:46:12.272Z,95.04
2023-03-12T20:48:40.048Z,95.38
2023-03-12T20:51:07.708Z,95.67
2023-03-12T20:53:35.334Z,95.56
2023-03-12T20:56:05.324Z,95.30
2023-03-12T20:58:34.834Z,95.33
2023-03-12T21:01:04.977Z,95.77
2023-03-12T21:03:33.089Z,95.82
2023-03-12T21:06:02.862Z,95.50
2023-03-12T21:08:30.718Z,95.42
2023-03-12T21:10:58.423Z,95.35
2023-03-12T21:13:26.657Z,95.63
2023-03-12T21:15:54.165Z,95.51
2023-03-12T21:18:21.706Z,96.09
2023-03-12T21:20:49.549Z,95.49
2023-03-12T21:23:17.226Z,96.15
2023-03-12T21:25:44.949Z,96.21
2023-03-12T21:28:12.579Z,96.06
2023-03-12T21:30:40.253Z,95.96
2023-03-12T21:33:07.907Z,95.93
2023-03-12T21:35:35.535Z,96.65
2023-03-12T21:38:03.175Z,96.08
2023-03-12T21:40:30.815Z,96.00
2023-03-12T21:42:58.270Z,96.67
2023-03-12T21:45:25.957Z,96.16
2023-03-12T21:47:54.064Z,96.80
2023-03-12T21:50:22.060Z,96.32
2023-03-12T21:52:50.773Z,96.27
2023-03-12T21:55:19.022Z,96.35
2023-03-12T21:57:47.419Z,96.01
2023-03-12T22:00:15.648Z,96.38
2023-03-12T22:02:45.193Z,95.91
2023-03-12T22:05:13.481Z,96.43
2023-03-12T22:07:41.032Z,96.57
2023-03-12T22:10:11.975Z,96.40
2023-03-12T22:12:40.101Z,96.02
2023-03-12T22:15:09.294Z,96.03
2023-03-12T22:17:37.006Z,96.11
2023-03-12T22:20:07.753Z,96.00
2023-03-12T22:22:35.442Z,95.80
2023-03-12T22:25:03.045Z,96.12
2023-03-12T22:27:30.734Z,96.11
2023-03-12T22:29:58.178Z,95.89
2023-03-12T22:32:25.900Z,96.04
2023-03-12T22:34:54.158Z,95.59
2023-03-12T22:37:21.630Z,95.55
2023-03-12T22:39:49.170Z,95.35
2023-03-12T22:42:16.931Z,95.50
2023-03-12T22:44:44.418Z,95.39
2023-03-12T22:47:17.928Z,95.74
2023-03-12T22:49:46.678Z,95.60
2023-03-12T22:52:22.086Z,95.52
2023-03-12T22:54:50.251Z,95.82
2023-03-12T22:57:17.802Z,95.20
2023-03-12T22:59:47.985Z,95.53
2023-03-12T23:02:15.749Z,96.18
2023-03-12T23:04:43.541Z,95.82
2023-03-12T23:07:15.953Z,96.03
2023-03-12T23:09:47.245Z,96.38
2023-03-12T23:12:14.775Z,96.93
2023-03-12T23:14:42.348Z,97.24
2023-03-12T23:17:10.005Z,97.42
2023-03-12T23:19:37.541Z,97.86
2023-03-12T23:22:05.216Z,97.97
2023-03-12T23:24:32.993Z,97.94
2023-03-12T23:27:00.444Z,98.36
2023-03-12T23:29:30.950Z,99.10
2023-03-12T23:31:58.700Z,99.60
2023-03-12T23:34:27.008Z,99.19
2023-03-12T23:36:54.566Z,99.86
2023-03-12T23:39:23.226Z,100.00
2023-03-12T23:41:50.848Z,100.00
2023-03-12T23:44:18.315Z,100.00
2023-03-12T23:46:45.982Z,100.00
2023-03-12T23:49:13.518Z,100.00
2023-03-12T23:51:41.254Z,100.00
2023-03-12T23:54:09.025Z,100.00
2023-03-12T23:56:39.741Z,100.00
2023-03-12T23:59:09.773Z,100.00
